Time;durP1;ratioP1;P1;durP2;ratioP2;P2;SDS_P1;SDS_P2;PMS_P1;PMS_P2;Temp;Humidity;BMP_temperature;BMP_pressure;BME280_temperature;BME280_humidity;BME280_pressure;Samples;Min_cycle;Max_cycle;Signal;HPM_P1;HPM_P2
2023/06/01 00:00:38;;;;;;;4.72;1.55;;;11.50;99.90;;;;;;5070349;28;20572;-66
2023/06/01 00:03:04;;;;;;;2.22;1.13;;;11.50;99.90;;;;;;5071566;28;20043;-66
2023/06/01 00:05:29;;;;;;;2.88;1.58;;;11.60;99.90;;;;;;5069553;28;20076;-67
2023/06/01 00:07:55;;;;;;;2.85;1.60;;;11.60;99.90;;;;;;5071614;28;20078;-65
2023/06/01 00:10:21;;;;;;;3.13;1.25;;;11.60;99.90;;;;;;5069834;28;20033;-66
2023/06/01 00:12:47;;;;;;;8.38;1.63;;;11.60;99.90;;;;;;5069472;28;20124;-67
2023/06/01 00:15:13;;;;;;;2.58;1.25;;;11.60;99.90;;;;;;5069908;28;20036;-67
2023/06/01 00:17:38;;;;;;;4.95;1.83;;;11.60;99.90;;;;;;5069046;28;20070;-67
2023/06/01 00:20:08;;;;;;;4.05;1.20;;;11.60;99.90;;;;;;5069451;28;20067;-67
2023/06/01 00:22:38;;;;;;;2.28;1.10;;;11.70;99.90;;;;;;5069951;28;20044;-66
2023/06/01 00:25:08;;;;;;;3.25;1.80;;;11.60;99.90;;;;;;5070795;28;20496;-67
2023/06/01 00:27:33;;;;;;;5.95;1.65;;;11.70;99.90;;;;;;5068878;28;20051;-65
2023/06/01 00:29:59;;;;;;;3.03;1.42;;;11.60;99.90;;;;;;5069452;28;20048;-67
2023/06/01 00:32:25;;;;;;;2.55;1.52;;;11.60;99.90;;;;;;5069504;28;20037;-67
2023/06/01 00:34:51;;;;;;;2.47;0.93;;;11.60;99.90;;;;;;5070226;28;20068;-64
2023/06/01 00:37:17;;;;;;;3.70;1.70;;;11.60;99.90;;;;;;5069753;28;20428;-66
2023/06/01 00:39:44;;;;;;;4.97;2.25;;;11.50;99.90;;;;;;5069964;28;20044;-65
2023/06/01 00:42:10;;;;;;;2.50;1.42;;;11.50;99.90;;;;;;5069581;28;20046;-67
2023/06/01 00:44:36;;;;;;;1.30;0.80;;;11.50;99.90;;;;;;5070576;28;20421;-67
2023/06/01 00:47:02;;;;;;;3.15;1.17;;;11.50;99.90;;;;;;5070219;28;20041;-67
2023/06/01 00:49:28;;;;;;;3.58;1.38;;;11.50;99.90;;;;;;5069196;28;20056;-67
2023/06/01 00:51:54;;;;;;;1.17;0.90;;;11.50;99.90;;;;;;5069038;28;20496;-65
2023/06/01 00:54:20;;;;;;;1.13;0.75;;;11.40;99.90;;;;;;5070028;28;20078;-67
2023/06/01 00:56:46;;;;;;;1.77;1.00;;;11.40;99.90;;;;;;5068977;28;20079;-67
2023/06/01 00:59:13;;;;;;;3.55;1.17;;;11.40;99.90;;;;;;5069082;28;20079;-65
2023/06/01 01:01:42;;;;;;;3.42;1.30;;;11.30;99.90;;;;;;5051714;28;20053;-66
2023/06/01 01:04:09;;;;;;;4.97;2.13;;;11.30;99.90;;;;;;5069258;28;20110;-67
2023/06/01 01:07:21;;;;;;;1.67;1.05;;;11.30;99.90;;;;;;5052549;28;20040;-67
2023/06/01 01:10:05;;;;;;;1.75;0.95;;;11.30;99.90;;;;;;5068312;28;20438;-68
2023/06/01 01:13:00;;;;;;;4.03;1.50;;;11.30;99.90;;;;;;5052089;28;20098;-68
2023/06/01 01:16:07;;;;;;;3.70;1.50;;;11.20;99.90;;;;;;5061381;28;20043;-66
2023/06/01 01:19:08;;;;;;;1.95;0.73;;;11.30;99.90;;;;;;5068699;28;20048;-67
2023/06/01 01:21:38;;;;;;;1.38;0.88;;;11.20;99.90;;;;;;5045503;28;20044;-68
2023/06/01 01:24:31;;;;;;;4.47;1.23;;;11.30;99.90;;;;;;5068888;28;20037;-66
2023/06/01 01:27:24;;;;;;;2.83;1.40;;;11.30;99.90;;;;;;5068703;28;20041;-67
2023/06/01 01:29:54;;;;;;;2.65;1.63;;;11.30;99.90;;;;;;5069029;28;20036;-67
2023/06/01 01:32:23;;;;;;;2.05;1.13;;;11.30;99.90;;;;;;5068918;28;20123;-67
2023/06/01 01:34:51;;;;;;;4.10;1.23;;;11.30;99.90;;;;;;5069969;28;20295;-67
2023/06/01 01:40:49;;;;;;;2.17;1.15;;;11.30;99.90;;;;;;5068472;28;20051;-65
2023/06/01 01:43:15;;;;;;;4.60;1.52;;;11.30;99.90;;;;;;5069497;28;20115;-65
2023/06/01 01:45:42;;;;;;;3.95;1.88;;;11.30;99.90;;;;;;5069782;28;20599;-67
2023/06/01 01:48:39;;;;;;;1.90;1.10;;;11.30;99.90;;;;;;5069721;28;20056;-67
2023/06/01 01:51:13;;;;;;;4.55;1.85;;;11.30;99.90;;;;;;5073410;28;20374;-66
2023/06/01 01:53:43;;;;;;;2.95;1.25;;;11.20;99.90;;;;;;5072047;28;20051;-66
2023/06/01 01:56:09;;;;;;;4.43;1.30;;;11.20;99.90;;;;;;5089680;28;20044;-67
2023/06/01 01:58:36;;;;;;;4.50;1.13;;;11.20;99.90;;;;;;5071216;28;20055;-67
2023/06/01 02:01:03;;;;;;;3.10;1.42;;;11.20;99.90;;;;;;5071716;28;20477;-66
2023/06/01 02:03:29;;;;;;;2.28;1.35;;;11.20;99.90;;;;;;5089819;28;20054;-67
2023/06/01 02:05:55;;;;;;;4.97;1.50;;;11.10;99.90;;;;;;5071444;28;20036;-67
2023/06/01 02:08:20;;;;;;;1.95;1.27;;;11.10;99.90;;;;;;5071467;28;20040;-67
2023/06/01 02:10:46;;;;;;;3.00;1.27;;;11.10;99.90;;;;;;5070822;28;20101;-67
2023/06/01 02:13:12;;;;;;;6.20;1.48;;;11.10;99.90;;;;;;5055138;28;20032;-67
2023/06/01 02:15:38;;;;;;;1.70;1.23;;;11.00;99.90;;;;;;5071496;28;20071;-65
2023/06/01 02:18:04;;;;;;;2.42;1.15;;;11.10;99.90;;;;;;5071197;28;20032;-67
2023/06/01 02:20:30;;;;;;;2.42;1.67;;;11.00;99.90;;;;;;5071667;28;20494;-67
2023/06/01 02:22:55;;;;;;;3.13;1.23;;;11.00;99.90;;;;;;5089348;28;20149;-67
2023/06/01 02:25:21;;;;;;;2.28;1.15;;;11.00;99.90;;;;;;5070793;28;20044;-67
2023/06/01 02:27:47;;;;;;;4.18;1.35;;;11.00;99.90;;;;;;5071362;28;20104;-67
2023/06/01 02:30:13;;;;;;;2.55;1.00;;;11.00;99.90;;;;;;5071184;28;20044;-67
2023/06/01 02:32:39;;;;;;;2.13;1.08;;;11.00;99.90;;;;;;5070713;28;20036;-67
2023/06/01 02:35:06;;;;;;;4.45;1.38;;;11.10;99.90;;;;;;5054707;28;20163;-66
2023/06/01 02:37:32;;;;;;;1.70;1.15;;;11.10;99.90;;;;;;5071308;28;20055;-67
2023/06/01 02:39:58;;;;;;;4.10;1.48;;;11.10;99.90;;;;;;5071400;28;20035;-67
2023/06/01 02:42:24;;;;;;;2.08;0.98;;;11.10;99.90;;;;;;5074828;28;20040;-67
2023/06/01 02:44:50;;;;;;;3.72;1.90;;;11.10;99.90;;;;;;5075118;28;20047;-68
2023/06/01 02:47:16;;;;;;;2.92;1.20;;;11.10;99.90;;;;;;5074322;28;20040;-67
2023/06/01 02:49:42;;;;;;;5.18;1.58;;;11.10;99.90;;;;;;5074664;28;20044;-67
2023/06/01 02:52:08;;;;;;;7.88;1.90;;;11.10;99.90;;;;;;5075195;28;20044;-67
2023/06/01 02:54:34;;;;;;;3.03;1.40;;;11.20;99.90;;;;;;5074111;28;20044;-67
2023/06/01 02:57:01;;;;;;;5.05;1.95;;;11.20;99.90;;;;;;5074784;28;20046;-66
2023/06/01 02:59:27;;;;;;;2.67;1.60;;;11.20;99.90;;;;;;5093019;28;20055;-65
2023/06/01 03:01:53;;;;;;;3.17;1.50;;;11.20;99.90;;;;;;5092013;28;20036;-65
2023/06/01 03:04:20;;;;;;;6.50;1.48;;;11.10;99.90;;;;;;5092906;28;20068;-67
2023/06/01 03:06:46;;;;;;;4.05;1.48;;;11.10;99.90;;;;;;5074172;28;20044;-67
2023/06/01 03:09:15;;;;;;;3.67;1.80;;;11.10;99.90;;;;;;5092728;28;20035;-67
2023/06/01 03:11:42;;;;;;;3.22;1.48;;;11.10;99.90;;;;;;5074629;28;20032;-67
2023/06/01 03:14:08;;;;;;;1.73;1.02;;;11.10;99.90;;;;;;5074060;28;20040;-67
2023/06/01 03:16:34;;;;;;;2.10;1.08;;;11.10;99.90;;;;;;5074561;28;20035;-68
2023/06/01 03:19:01;;;;;;;2.85;1.23;;;11.10;99.90;;;;;;5074351;28;20133;-68
2023/06/01 03:21:27;;;;;;;4.43;1.58;;;11.10;99.90;;;;;;5091748;28;20051;-68
2023/06/01 03:23:53;;;;;;;2.13;1.05;;;11.10;99.90;;;;;;5057897;28;20040;-67
2023/06/01 03:26:20;;;;;;;3.75;1.13;;;11.10;99.90;;;;;;5074313;28;20431;-67
2023/06/01 03:28:47;;;;;;;2.55;1.58;;;11.10;99.90;;;;;;5110798;28;20040;-68
2023/06/01 03:31:13;;;;;;;2.22;1.45;;;11.10;99.90;;;;;;5112767;28;20040;-68
2023/06/01 03:33:39;;;;;;;2.55;1.05;;;11.10;99.90;;;;;;5094603;28;20126;-67
2023/06/01 03:36:07;;;;;;;4.05;1.58;;;11.20;99.90;;;;;;5093868;28;20039;-67
2023/06/01 03:38:34;;;;;;;2.63;0.80;;;11.20;99.90;;;;;;5094639;28;20437;-67
2023/06/01 03:41:00;;;;;;;3.78;1.80;;;11.20;99.90;;;;;;5094500;28;20051;-67
2023/06/01 03:43:27;;;;;;;1.30;0.88;;;11.20;99.90;;;;;;5093502;28;20100;-66
2023/06/01 03:45:52;;;;;;;5.53;1.52;;;11.20;99.90;;;;;;5093956;28;20523;-66
2023/06/01 03:48:18;;;;;;;3.83;2.08;;;11.20;99.90;;;;;;5077463;28;20078;-67
2023/06/01 03:50:45;;;;;;;3.05;1.40;;;11.20;99.90;;;;;;5076296;28;20051;-64
2023/06/01 03:53:11;;;;;;;3.17;1.45;;;11.20;99.90;;;;;;5094098;28;20427;-67
2023/06/01 03:55:37;;;;;;;9.38;2.20;;;11.20;99.90;;;;;;5093590;28;20036;-66
2023/06/01 03:58:04;;;;;;;3.63;2.00;;;11.20;99.90;;;;;;5076916;28;20036;-67
2023/06/01 04:00:30;;;;;;;3.30;1.35;;;11.20;99.90;;;;;;5111805;28;20495;-67
2023/06/01 04:03:02;;;;;;;3.50;1.27;;;11.20;99.90;;;;;;5093496;28;20100;-66
2023/06/01 04:05:28;;;;;;;1.75;0.93;;;11.20;99.90;;;;;;5093774;28;20039;-67
2023/06/01 04:07:55;;;;;;;1.65;0.88;;;11.20;99.90;;;;;;5112208;28;20035;-67
2023/06/01 04:10:21;;;;;;;1.63;0.93;;;11.30;99.90;;;;;;5092984;28;20426;-67
2023/06/01 04:12:49;;;;;;;6.20;1.92;;;11.30;99.90;;;;;;5111307;28;20035;-67
2023/06/01 04:15:16;;;;;;;2.40;0.88;;;11.30;99.90;;;;;;5111038;28;20067;-66
2023/06/01 04:17:43;;;;;;;3.05;0.95;;;11.40;99.90;;;;;;5091993;28;20070;-66
2023/06/01 04:20:13;;;;;;;3.17;1.40;;;11.30;99.90;;;;;;5110854;28;20483;-67
2023/06/01 04:22:40;;;;;;;6.13;1.25;;;11.30;99.90;;;;;;5092388;28;20048;-67
2023/06/01 04:25:08;;;;;;;1.45;0.77;;;11.40;99.90;;;;;;5091580;28;20035;-67
2023/06/01 04:27:37;;;;;;;3.40;1.15;;;11.40;99.90;;;;;;5092451;28;20046;-67
2023/06/01 04:30:10;;;;;;;2.07;1.03;;;11.40;99.90;;;;;;5092092;28;20039;-67
2023/06/01 04:32:37;;;;;;;4.38;0.98;;;11.40;99.90;;;;;;5091596;28;20040;-67
2023/06/01 04:35:07;;;;;;;2.17;1.27;;;11.40;99.90;;;;;;5092062;28;20043;-64
2023/06/01 04:37:37;;;;;;;;;;;11.40;99.90;;;;;;5091894;28;20093;-65
2023/06/01 04:40:07;;;;;;;3.35;0.80;;;11.50;99.90;;;;;;5092461;28;19920;-67
2023/06/01 04:42:40;;;;;;;2.13;0.73;;;11.50;99.90;;;;;;5075068;28;20042;-67
2023/06/01 04:45:07;;;;;;;2.17;0.77;;;11.50;99.90;;;;;;5074762;28;20503;-67
2023/06/01 04:47:39;;;;;;;1.88;1.20;;;11.50;99.90;;;;;;5092346;28;20828;-67
2023/06/01 04:50:09;;;;;;;1.40;0.70;;;11.50;99.90;;;;;;5109975;28;20119;-67
2023/06/01 04:52:36;;;;;;;5.60;1.13;;;11.50;99.90;;;;;;5091533;28;20430;-66
2023/06/01 04:55:04;;;;;;;3.38;1.13;;;11.50;99.90;;;;;;5111167;28;20070;-67
2023/06/01 04:57:32;;;;;;;1.75;0.80;;;11.50;99.90;;;;;;5091699;28;20104;-68
2023/06/01 04:59:58;;;;;;;1.42;1.10;;;11.50;99.90;;;;;;5091462;28;20404;-65
2023/06/01 05:02:25;;;;;;;2.30;1.27;;;11.60;99.90;;;;;;5074317;28;20091;-66
2023/06/01 05:04:51;;;;;;;7.03;1.58;;;11.60;99.90;;;;;;5091634;28;20035;-67
2023/06/01 05:07:17;;;;;;;2.28;1.27;;;11.60;99.90;;;;;;5090989;28;20488;-67
2023/06/01 05:09:43;;;;;;;2.00;1.05;;;11.60;99.90;;;;;;5074696;28;20064;-65
2023/06/01 05:12:09;;;;;;;1.52;1.10;;;11.60;99.90;;;;;;5109740;28;20071;-67
2023/06/01 05:14:35;;;;;;;4.57;1.00;;;11.60;99.90;;;;;;5091022;28;20143;-67
2023/06/01 05:17:01;;;;;;;2.50;1.00;;;11.70;99.90;;;;;;5092581;28;20425;-67
2023/06/01 05:19:27;;;;;;;3.42;1.42;;;11.70;99.90;;;;;;5092439;28;20074;-67
2023/06/01 05:21:53;;;;;;;2.58;0.95;;;11.70;99.90;;;;;;5091391;28;20419;-67
2023/06/01 05:24:19;;;;;;;1.48;0.85;;;11.70;99.90;;;;;;5092383;28;20078;-66
2023/06/01 05:26:45;;;;;;;140.70;15.13;;;11.70;99.90;;;;;;5090667;28;20069;-67
2023/06/01 05:29:11;;;;;;;0.85;0.82;;;11.70;99.90;;;;;;5110166;28;20078;-66
2023/06/01 05:31:37;;;;;;;21.40;1.98;;;11.80;99.90;;;;;;5092093;28;20036;-65
2023/06/01 05:34:03;;;;;;;1.58;1.13;;;11.80;99.90;;;;;;5091521;28;20039;-65
2023/06/01 05:36:29;;;;;;;1.73;0.90;;;11.80;99.90;;;;;;5092108;28;20037;-68
2023/06/01 05:38:54;;;;;;;2.55;1.23;;;11.80;99.90;;;;;;5091768;28;20134;-69
2023/06/01 05:41:20;;;;;;;1.52;0.85;;;11.80;99.90;;;;;;5090638;28;20043;-68
2023/06/01 05:43:46;;;;;;;2.65;1.10;;;11.80;99.90;;;;;;5091382;28;20047;-71
2023/06/01 05:46:12;;;;;;;2.78;1.35;;;11.90;99.90;;;;;;5091673;28;20088;-68
2023/06/01 05:48:38;;;;;;;5.22;1.08;;;11.90;99.90;;;;;;5109327;28;20043;-67
2023/06/01 05:51:05;;;;;;;1.58;0.75;;;11.90;99.90;;;;;;5087799;28;20091;-65
2023/06/01 05:53:30;;;;;;;1.75;0.85;;;11.90;99.90;;;;;;5090198;28;20040;-67
2023/06/01 05:55:56;;;;;;;2.58;1.13;;;12.00;99.90;;;;;;5071103;28;20435;-66
2023/06/01 05:58:22;;;;;;;7.03;1.38;;;12.00;99.90;;;;;;5089572;28;20040;-66
2023/06/01 06:00:48;;;;;;;1.58;0.80;;;12.10;99.90;;;;;;5054783;28;20040;-67
2023/06/01 06:03:14;;;;;;;2.53;1.25;;;12.10;99.90;;;;;;5078034;28;20058;-67
2023/06/01 06:05:40;;;;;;;5.65;0.75;;;12.10;99.90;;;;;;5088090;28;20051;-66
2023/06/01 06:08:06;;;;;;;3.63;0.65;;;12.20;99.90;;;;;;5087889;28;20044;-66
2023/06/01 06:10:32;;;;;;;1.40;0.90;;;12.20;99.90;;;;;;5055811;28;20047;-66
2023/06/01 06:12:58;;;;;;;1.58;0.90;;;12.20;99.90;;;;;;5091738;28;20391;-66
2023/06/01 06:15:24;;;;;;;0.70;0.63;;;12.20;99.90;;;;;;5092866;28;20511;-66
2023/06/01 06:17:50;;;;;;;2.63;1.38;;;12.30;99.90;;;;;;5095430;28;20042;-67
2023/06/01 06:20:16;;;;;;;2.38;0.82;;;12.30;99.90;;;;;;5095713;28;20078;-67
2023/06/01 06:23:08;;;;;;;1.85;0.80;;;12.30;99.90;;;;;;5094366;28;20051;-66
2023/06/01 06:25:45;;;;;;;2.78;1.00;;;12.30;99.90;;;;;;5110641;28;20073;-66
2023/06/01 06:28:11;;;;;;;1.50;0.70;;;12.30;99.90;;;;;;5113543;28;20051;-65
2023/06/01 06:30:37;;;;;;;4.45;0.60;;;12.30;99.90;;;;;;5094770;28;20035;-65
2023/06/01 06:33:03;;;;;;;2.72;0.98;;;12.30;99.90;;;;;;5095348;28;20039;-65
2023/06/01 06:35:28;;;;;;;3.95;1.17;;;12.40;99.90;;;;;;5113756;28;20040;-67
2023/06/01 06:37:54;;;;;;;0.93;0.70;;;12.40;99.90;;;;;;5112969;28;20032;-64
2023/06/01 06:40:20;;;;;;;3.85;1.60;;;12.40;99.90;;;;;;5078667;28;20040;-66
2023/06/01 06:42:46;;;;;;;4.43;1.27;;;12.40;99.90;;;;;;5095195;28;20121;-67
2023/06/01 06:45:12;;;;;;;4.10;1.90;;;12.50;99.90;;;;;;5095071;28;20097;-66
2023/06/01 06:47:38;;;;;;;5.70;1.42;;;12.50;99.90;;;;;;5095093;28;20044;-67
2023/06/01 06:50:04;;;;;;;3.03;1.05;;;12.60;99.90;;;;;;5094792;28;20087;-67
2023/06/01 06:52:30;;;;;;;6.10;1.20;;;12.60;99.90;;;;;;5094609;28;20101;-66
2023/06/01 06:54:56;;;;;;;2.60;0.80;;;12.70;99.90;;;;;;5095604;28;20040;-65
2023/06/01 06:57:22;;;;;;;2.65;1.15;;;12.70;99.90;;;;;;5083876;28;20043;-65
2023/06/01 06:59:48;;;;;;;2.22;1.27;;;12.70;99.90;;;;;;5094617;28;20047;-66
2023/06/01 07:02:14;;;;;;;4.18;1.23;;;12.70;99.90;;;;;;5093304;28;20561;-66
2023/06/01 07:04:40;;;;;;;8.15;1.45;;;12.70;99.90;;;;;;5076705;28;20044;-66
2023/06/01 07:07:07;;;;;;;2.47;0.60;;;12.70;99.90;;;;;;5092808;28;20490;-66
2023/06/01 07:09:33;;;;;;;4.88;1.20;;;12.80;99.90;;;;;;5074542;28;20040;-66
2023/06/01 07:11:59;;;;;;;2.88;1.30;;;12.80;99.90;;;;;;5073890;28;20069;-66
2023/06/01 07:14:25;;;;;;;5.68;1.00;;;12.90;99.90;;;;;;5058004;28;20072;-65
2023/06/01 07:16:51;;;;;;;1.25;0.82;;;12.80;99.90;;;;;;5092655;28;20127;-66
2023/06/01 07:19:17;;;;;;;1.60;0.82;;;12.90;99.90;;;;;;5074110;28;20040;-65
2023/06/01 07:21:48;;;;;;;1.05;0.65;;;12.90;99.90;;;;;;5057734;28;20040;-65
2023/06/01 07:24:19;;;;;;;2.13;0.93;;;12.90;99.90;;;;;;5080496;28;20043;-66
2023/06/01 07:26:45;;;;;;;1.40;0.82;;;12.90;99.90;;;;;;5093470;28;20075;-66
2023/06/01 07:29:14;;;;;;;1.33;0.80;;;13.00;99.90;;;;;;5094344;28;20093;-65
2023/06/01 07:31:40;;;;;;;2.17;1.08;;;13.00;99.90;;;;;;5077454;28;20046;-66
2023/06/01 07:34:08;;;;;;;4.55;0.85;;;13.00;99.90;;;;;;5094050;28;20031;-64
2023/06/01 07:36:38;;;;;;;3.15;1.40;;;13.00;99.90;;;;;;5111291;28;20044;-66
2023/06/01 07:39:08;;;;;;;1.70;0.88;;;13.10;99.90;;;;;;5094526;28;20464;-66
2023/06/01 07:41:34;;;;;;;2.05;0.82;;;13.20;99.90;;;;;;5076594;28;20071;-66
2023/06/01 07:44:00;;;;;;;1.10;0.70;;;13.20;99.90;;;;;;5094341;28;20074;-66
2023/06/01 07:46:26;;;;;;;4.32;1.10;;;13.20;99.90;;;;;;5094079;28;20043;-66
2023/06/01 07:48:52;;;;;;;2.55;0.55;;;13.30;99.90;;;;;;5090502;28;20071;-65
2023/06/01 07:51:18;;;;;;;1.00;0.60;;;13.30;99.90;;;;;;5093796;28;20561;-66
2023/06/01 07:53:44;;;;;;;4.30;1.00;;;13.30;99.90;;;;;;5076517;28;20100;-65
2023/06/01 07:56:10;;;;;;;1.10;0.68;;;13.40;99.90;;;;;;5093887;28;20053;-66
2023/06/01 07:58:37;;;;;;;0.77;0.45;;;13.40;99.90;;;;;;5077055;28;20044;-64
2023/06/01 08:01:04;;;;;;;0.90;0.68;;;13.50;99.90;;;;;;5093513;28;20112;-64
2023/06/01 08:03:33;;;;;;;0.90;0.60;;;13.40;99.90;;;;;;5093533;28;20039;-65
2023/06/01 08:06:02;;;;;;;2.38;1.20;;;13.40;99.90;;;;;;5093849;28;20043;-66
2023/06/01 08:08:28;;;;;;;3.13;0.70;;;13.40;99.90;;;;;;5093274;28;20380;-67
2023/06/01 08:10:54;;;;;;;1.52;0.55;;;13.40;99.90;;;;;;5093695;28;20322;-65
2023/06/01 08:13:21;;;;;;;0.95;0.35;;;13.40;99.90;;;;;;5076767;28;20046;-66
2023/06/01 08:15:47;;;;;;;1.40;0.75;;;13.40;99.90;;;;;;5111045;28;20050;-67
2023/06/01 08:18:14;;;;;;;0.75;0.40;;;13.30;99.90;;;;;;5111860;28;20039;-66
2023/06/01 08:20:41;;;;;;;3.13;0.88;;;13.30;99.90;;;;;;5093876;28;20040;-65
2023/06/01 08:23:08;;;;;;;1.00;0.60;;;13.30;99.90;;;;;;5088043;28;20052;-67
2023/06/01 08:25:34;;;;;;;1.17;0.60;;;13.20;99.90;;;;;;5111733;28;20487;-67
2023/06/01 08:28:12;;;;;;;1.63;0.80;;;13.20;99.90;;;;;;5111811;28;20075;-66
2023/06/01 08:30:38;;;;;;;1.30;0.45;;;13.30;99.90;;;;;;5071929;28;20044;-67
2023/06/01 08:33:08;;;;;;;1.23;0.50;;;13.40;99.90;;;;;;5090176;28;20048;-66
2023/06/01 08:35:34;;;;;;;0.65;0.40;;;13.50;99.90;;;;;;5090525;28;20039;-66
2023/06/01 08:38:03;;;;;;;0.80;0.40;;;13.60;99.90;;;;;;5064045;28;20066;-67
2023/06/01 08:40:33;;;;;;;0.82;0.43;;;13.70;99.90;;;;;;5083608;28;20039;-66
2023/06/01 08:43:03;;;;;;;1.40;0.73;;;13.80;99.90;;;;;;5092319;28;20035;-66
2023/06/01 08:45:31;;;;;;;2.53;0.88;;;13.80;99.90;;;;;;5105936;28;20054;-67
2023/06/01 08:47:58;;;;;;;0.80;0.40;;;13.90;99.90;;;;;;5092430;28;20035;-66
2023/06/01 08:50:27;;;;;;;1.52;0.60;;;13.90;99.90;;;;;;5068642;28;20047;-66
2023/06/01 08:52:56;;;;;;;1.60;0.77;;;13.90;99.90;;;;;;5070696;28;20080;-67
2023/06/01 08:55:22;;;;;;;0.95;0.60;;;13.90;99.90;;;;;;5070605;28;20036;-66
2023/06/01 08:57:49;;;;;;;1.30;0.68;;;13.80;99.90;;;;;;5068538;28;20040;-66
2023/06/01 09:00:16;;;;;;;2.08;0.52;;;13.80;99.90;;;;;;5069526;28;20052;-66
2023/06/01 09:02:43;;;;;;;1.98;0.30;;;13.70;99.90;;;;;;5052254;28;20044;-66
2023/06/01 09:05:09;;;;;;;2.20;0.70;;;13.60;99.90;;;;;;5081303;28;20046;-66
2023/06/01 09:07:35;;;;;;;1.05;0.50;;;13.50;99.90;;;;;;5090650;28;20480;-66
2023/06/01 09:10:01;;;;;;;2.53;0.70;;;13.50;99.90;;;;;;5082436;28;20044;-65
2023/06/01 09:12:29;;;;;;;1.02;0.50;;;13.50;99.90;;;;;;5069182;28;20040;-66
2023/06/01 09:15:18;;;;;;;0.45;0.35;;;13.50;99.90;;;;;;5068882;28;20056;-65
2023/06/01 09:17:46;;;;;;;0.65;0.35;;;13.50;99.90;;;;;;5085105;28;20055;-66
2023/06/01 09:20:24;;;;;;;1.42;0.77;;;13.40;99.90;;;;;;5069442;28;20492;-65
2023/06/01 09:22:50;;;;;;;1.15;0.52;;;13.30;99.90;;;;;;5069905;28;20044;-66
2023/06/01 09:25:16;;;;;;;4.55;1.33;;;13.30;99.90;;;;;;5068152;28;20099;-65
2023/06/01 09:27:50;;;;;;;1.83;0.60;;;13.30;99.90;;;;;;5068724;28;20408;-64
2023/06/01 09:30:18;;;;;;;1.92;0.90;;;13.30;99.90;;;;;;5068738;28;20133;-66
2023/06/01 09:32:50;;;;;;;4.65;1.13;;;13.30;99.90;;;;;;5076764;28;20040;-65
2023/06/01 09:35:16;;;;;;;0.80;0.50;;;13.30;99.90;;;;;;5088776;28;20365;-65
2023/06/01 09:37:55;;;;;;;3.53;0.60;;;13.40;99.90;;;;;;5087969;28;20040;-66
2023/06/01 09:40:21;;;;;;;3.20;0.70;;;13.50;99.90;;;;;;5071022;28;20388;-66
2023/06/01 09:42:50;;;;;;;1.20;0.55;;;13.50;99.90;;;;;;5088150;28;20188;-67
2023/06/01 09:45:18;;;;;;;2.03;0.93;;;13.50;99.90;;;;;;5068116;28;20040;-66
2023/06/01 09:47:44;;;;;;;1.92;1.23;;;13.50;99.90;;;;;;5068031;28;20048;-66
2023/06/01 09:50:11;;;;;;;1.05;0.60;;;13.50;99.90;;;;;;5067193;28;20048;-66
2023/06/01 09:52:38;;;;;;;2.47;1.30;;;13.50;99.90;;;;;;5067937;28;20047;-65
2023/06/01 09:55:09;;;;;;;2.50;1.02;;;13.50;99.90;;;;;;5069786;28;20397;-65
2023/06/01 09:57:35;;;;;;;2.40;1.08;;;13.50;99.90;;;;;;5068737;28;20640;-65
2023/06/01 10:00:08;;;;;;;1.75;0.70;;;13.50;99.90;;;;;;5067659;28;20076;-64
2023/06/01 10:02:34;;;;;;;3.78;1.17;;;13.40;99.90;;;;;;5068371;28;20584;-66
2023/06/01 10:05:01;;;;;;;1.00;0.68;;;13.40;99.90;;;;;;5069564;28;20047;-64
2023/06/01 10:07:29;;;;;;;2.78;1.63;;;13.40;99.90;;;;;;5067473;28;20078;-66
2023/06/01 10:09:58;;;;;;;4.20;0.88;;;13.50;99.90;;;;;;5067992;28;20423;-66
2023/06/01 10:12:28;;;;;;;4.60;1.25;;;13.40;99.90;;;;;;5067983;28;20036;-66
2023/06/01 10:14:55;;;;;;;3.20;0.95;;;13.50;99.90;;;;;;5068454;28;20075;-65
2023/06/01 10:17:21;;;;;;;5.65;1.20;;;13.60;99.90;;;;;;5064883;28;20040;-67
2023/06/01 10:19:48;;;;;;;7.45;1.33;;;13.70;99.90;;;;;;5071505;28;20377;-66
2023/06/01 10:22:15;;;;;;;1.48;0.47;;;13.70;99.90;;;;;;5087632;28;20546;-66
2023/06/01 10:24:43;;;;;;;1.33;0.63;;;13.80;99.90;;;;;;5071560;28;20075;-66
2023/06/01 10:27:32;;;;;;;2.83;0.65;;;13.80;99.90;;;;;;5089551;28;20040;-65
2023/06/01 10:29:58;;;;;;;1.93;0.93;;;13.80;99.90;;;;;;5071231;28;20075;-66
2023/06/01 10:32:37;;;;;;;4.63;1.42;;;13.80;99.90;;;;;;5068444;28;20059;-65
2023/06/01 10:35:07;;;;;;;3.42;0.60;;;13.80;99.90;;;;;;5067808;28;20036;-66
2023/06/01 10:37:33;;;;;;;3.47;0.90;;;13.80;99.90;;;;;;5067973;28;20071;-64
2023/06/01 10:40:18;;;;;;;9.10;1.33;;;13.80;99.90;;;;;;5067965;28;20098;-67
2023/06/01 10:42:45;;;;;;;2.97;0.80;;;13.70;99.90;;;;;;5067606;28;20044;-66
2023/06/01 10:45:39;;;;;;;3.67;0.90;;;13.70;99.90;;;;;;5068159;28;20036;-65
2023/06/01 10:48:07;;;;;;;1.17;0.45;;;13.80;99.90;;;;;;5067891;28;20056;-66
2023/06/01 10:50:35;;;;;;;3.28;0.90;;;13.80;99.90;;;;;;5066816;28;20055;-66
2023/06/01 10:53:28;;;;;;;1.58;0.80;;;13.90;99.90;;;;;;5080135;28;20115;-66
2023/06/01 10:56:23;;;;;;;4.88;1.40;;;14.00;99.90;;;;;;5068015;28;20040;-66
2023/06/01 10:59:07;;;;;;;3.15;0.98;;;14.00;99.90;;;;;;5079555;28;20492;-65
2023/06/01 11:01:37;;;;;;;1.42;0.98;;;14.00;99.90;;;;;;5070406;28;20578;-66
2023/06/01 11:04:03;;;;;;;;;;;14.00;99.90;;;;;;5085089;28;20440;-65
2023/06/01 11:06:38;;;;;;;3.03;0.95;;;14.10;99.90;;;;;;5091975;28;19967;-66
2023/06/01 11:09:10;;;;;;;1.40;0.77;;;14.20;99.90;;;;;;5091552;28;20119;-65
2023/06/01 11:11:48;;;;;;;1.35;1.08;;;14.30;99.90;;;;;;5090930;28;20046;-66
2023/06/01 11:14:16;;;;;;;3.33;1.10;;;14.40;99.90;;;;;;5091640;28;20063;-66
2023/06/01 11:16:42;;;;;;;5.65;1.10;;;14.50;99.90;;;;;;5091048;28;20111;-67
2023/06/01 11:19:09;;;;;;;4.18;0.90;;;14.50;99.90;;;;;;5092767;28;20431;-66
2023/06/01 11:21:45;;;;;;;1.33;0.70;;;14.50;99.90;;;;;;5091405;28;20040;-66
2023/06/01 11:24:17;;;;;;;2.50;0.90;;;14.50;99.90;;;;;;5091204;28;20466;-65
2023/06/01 11:26:48;;;;;;;3.58;1.23;;;14.60;99.90;;;;;;5092820;28;20035;-65
2023/06/01 11:29:18;;;;;;;2.45;0.55;;;14.50;99.90;;;;;;5091357;28;20063;-66
2023/06/01 11:31:56;;;;;;;4.22;1.33;;;14.50;99.90;;;;;;5090740;28;20489;-66
2023/06/01 11:34:41;;;;;;;3.50;1.27;;;14.60;99.90;;;;;;5091379;28;20036;-66
2023/06/01 11:37:18;;;;;;;2.67;0.95;;;14.60;99.90;;;;;;5091179;28;20119;-66
2023/06/01 11:39:46;;;;;;;1.10;0.70;;;14.60;99.90;;;;;;5073974;28;20127;-65
2023/06/01 11:42:14;;;;;;;3.00;1.15;;;14.70;99.90;;;;;;5091125;28;20539;-65
2023/06/01 11:44:44;;;;;;;2.85;0.90;;;14.60;99.90;;;;;;5090398;28;20535;-65
2023/06/01 11:47:11;;;;;;;2.65;1.40;;;14.70;99.90;;;;;;5091148;28;20427;-65
2023/06/01 11:49:48;;;;;;;3.35;0.70;;;14.70;99.90;;;;;;5091164;28;20043;-66
2023/06/01 11:52:17;;;;;;;9.63;2.42;;;14.70;99.90;;;;;;5090374;28;20044;-66
2023/06/01 11:54:44;;;;;;;3.22;1.00;;;14.80;99.90;;;;;;5092215;28;20043;-65
2023/06/01 11:57:10;;;;;;;5.20;1.30;;;14.80;99.90;;;;;;5092040;28;20516;-65
2023/06/01 11:59:49;;;;;;;4.18;1.65;;;14.90;99.90;;;;;;5073502;28;20074;-66
2023/06/01 12:02:29;;;;;;;2.38;1.17;;;15.00;99.90;;;;;;5057367;28;20392;-66
2023/06/01 12:04:59;;;;;;;;;;;15.10;99.90;;;;;;5074432;28;20147;-66
2023/06/01 12:07:25;;;;;;;;;;;15.20;99.90;;;;;;5057420;28;19969;-66
2023/06/01 12:09:56;;;;;;;2.25;1.20;;;15.30;99.90;;;;;;5073953;28;20415;-64
2023/06/01 12:12:25;;;;;;;2.58;0.70;;;15.30;99.90;;;;;;5073544;28;20048;-66
2023/06/01 12:14:52;;;;;;;3.45;1.08;;;15.20;99.90;;;;;;5091281;28;20039;-67
2023/06/01 12:17:18;;;;;;;2.00;0.85;;;15.20;99.90;;;;;;5056912;28;20093;-65
2023/06/01 12:19:48;;;;;;;2.33;1.00;;;15.20;99.90;;;;;;5073182;28;20129;-66
2023/06/01 12:22:16;;;;;;;3.22;1.42;;;15.20;99.90;;;;;;5091617;28;20036;-66
2023/06/01 12:24:44;;;;;;;1.00;0.70;;;15.30;99.90;;;;;;5073313;28;20044;-66
2023/06/01 12:27:19;;;;;;;2.45;1.13;;;15.40;99.90;;;;;;5090849;28;20052;-66
2023/06/01 12:29:47;;;;;;;3.13;0.93;;;15.30;99.90;;;;;;5073622;28;20055;-65
2023/06/01 12:32:17;;;;;;;1.77;1.00;;;15.40;99.90;;;;;;5073621;28;20071;-65
2023/06/01 12:34:47;;;;;;;4.53;1.05;;;15.30;99.90;;;;;;5093246;28;20069;-65
2023/06/01 12:37:13;;;;;;;;;;;15.20;99.90;;;;;;5076923;28;20051;-64
2023/06/01 12:39:41;;;;;;;2.38;0.98;;;15.10;99.90;;;;;;5093753;28;19919;-65
2023/06/01 12:42:08;;;;;;;2.75;1.10;;;15.20;99.90;;;;;;5075966;28;20123;-65
2023/06/01 12:44:34;;;;;;;3.08;0.88;;;15.20;99.90;;;;;;5093347;28;20110;-65
2023/06/01 12:47:03;;;;;;;2.40;1.20;;;15.20;99.90;;;;;;5093230;28;20472;-66
2023/06/01 12:49:29;;;;;;;3.47;1.17;;;15.20;99.90;;;;;;5111131;28;20514;-66
2023/06/01 12:51:56;;;;;;;3.47;0.80;;;15.20;99.90;;;;;;5093077;28;20408;-65
2023/06/01 12:54:22;;;;;;;1.85;1.00;;;15.20;99.90;;;;;;5093460;28;20432;-66
2023/06/01 12:56:49;;;;;;;3.78;1.15;;;15.20;99.90;;;;;;5075496;28;20044;-66
2023/06/01 12:59:15;;;;;;;4.10;1.20;;;15.20;99.90;;;;;;5093306;28;20431;-66